sensor_id;sensor_type;location;lat;lon;timestamp;pressure;altitude;pressure_sealevel;temperature;humidity
48027;BME280;50714;49.208;5.364;2023-07-31T00:06:27;99413.56;;;19.43;60.28
48027;BME280;50714;49.208;5.364;2023-07-31T00:16:27;99406.69;;;19.40;60.70
48027;BME280;50714;49.208;5.364;2023-07-31T00:26:28;99400.13;;;19.36;61.16
48027;BME280;50714;49.208;5.364;2023-07-31T00:36:28;99395.75;;;19.35;61.60
48027;BME280;50714;49.208;5.364;2023-07-31T00:46:28;99375.72;;;19.30;61.86
48027;BME280;50714;49.208;5.364;2023-07-31T00:56:29;99371.28;;;19.24;61.87
48027;BME280;50714;49.208;5.364;2023-07-31T01:16:50;99354.78;;;19.08;62.99
48027;BME280;50714;49.208;5.364;2023-07-31T01:26:57;99342.34;;;18.96;63.72
48027;BME280;50714;49.208;5.364;2023-07-31T01:36:58;99345.28;;;18.84;63.80
48027;BME280;50714;49.208;5.364;2023-07-31T01:46:58;99339.16;;;18.72;63.87
48027;BME280;50714;49.208;5.364;2023-07-31T01:57:00;99333.03;;;18.60;64.26
48027;BME280;50714;49.208;5.364;2023-07-31T02:07:00;99320.38;;;18.54;64.74
48027;BME280;50714;49.208;5.364;2023-07-31T02:17:00;99319.25;;;18.50;65.33
48027;BME280;50714;49.208;5.364;2023-07-31T02:27:01;99308.81;;;18.42;66.18
48027;BME280;50714;49.208;5.364;2023-07-31T02:37:01;99312.81;;;18.34;66.38
48027;BME280;50714;49.208;5.364;2023-07-31T02:47:01;99309.72;;;18.25;66.64
48027;BME280;50714;49.208;5.364;2023-07-31T02:57:03;99309.38;;;18.17;67.30
48027;BME280;50714;49.208;5.364;2023-07-31T03:07:04;99312.88;;;18.12;67.34
48027;BME280;50714;49.208;5.364;2023-07-31T03:17:05;99297.00;;;18.09;67.75
48027;BME280;50714;49.208;5.364;2023-07-31T03:27:06;99307.53;;;18.00;68.03
48027;BME280;50714;49.208;5.364;2023-07-31T03:37:06;99303.94;;;17.95;68.52
48027;BME280;50714;49.208;5.364;2023-07-31T03:47:06;99290.22;;;17.90;68.80
48027;BME280;50714;49.208;5.364;2023-07-31T03:57:07;99295.69;;;17.90;69.49
48027;BME280;50714;49.208;5.364;2023-07-31T04:07:07;99273.84;;;17.90;70.22
48027;BME280;50714;49.208;5.364;2023-07-31T04:17:07;99252.00;;;17.90;70.72
48027;BME280;50714;49.208;5.364;2023-07-31T04:27:08;99253.34;;;17.87;71.06
48027;BME280;50714;49.208;5.364;2023-07-31T04:37:08;99246.28;;;17.91;71.66
48027;BME280;50714;49.208;5.364;2023-07-31T04:47:09;99232.13;;;17.94;71.99
48027;BME280;50714;49.208;5.364;2023-07-31T04:57:09;99244.69;;;17.95;71.87
48027;BME280;50714;49.208;5.364;2023-07-31T05:07:09;99245.88;;;18.04;72.17
48027;BME280;50714;49.208;5.364;2023-07-31T05:17:10;99241.81;;;18.07;71.14
48027;BME280;50714;49.208;5.364;2023-07-31T05:27:10;99227.31;;;18.06;70.92
48027;BME280;50714;49.208;5.364;2023-07-31T05:37:10;99232.91;;;18.17;71.53
48027;BME280;50714;49.208;5.364;2023-07-31T05:47:12;99213.13;;;18.36;71.13
48027;BME280;50714;49.208;5.364;2023-07-31T05:57:12;99222.28;;;18.57;70.86
48027;BME280;50714;49.208;5.364;2023-07-31T06:07:12;99237.53;;;18.80;70.04
48027;BME280;50714;49.208;5.364;2023-07-31T06:17:13;99222.88;;;19.01;69.55
48027;BME280;50714;49.208;5.364;2023-07-31T06:27:13;99239.38;;;19.12;69.52
48027;BME280;50714;49.208;5.364;2023-07-31T06:37:13;99229.94;;;19.45;69.48
48027;BME280;50714;49.208;5.364;2023-07-31T06:47:14;99218.31;;;19.74;68.41
48027;BME280;50714;49.208;5.364;2023-07-31T06:57:14;99231.25;;;20.20;67.79
48027;BME280;50714;49.208;5.364;2023-07-31T07:07:14;99218.69;;;20.39;66.74
48027;BME280;50714;49.208;5.364;2023-07-31T07:17:15;99201.69;;;20.37;65.79
48027;BME280;50714;49.208;5.364;2023-07-31T07:27:15;99186.63;;;20.45;65.11
48027;BME280;50714;49.208;5.364;2023-07-31T07:37:16;99174.81;;;20.44;64.56
48027;BME280;50714;49.208;5.364;2023-07-31T07:47:16;99185.75;;;20.69;63.53
48027;BME280;50714;49.208;5.364;2023-07-31T07:57:16;99189.06;;;20.61;62.65
48027;BME280;50714;49.208;5.364;2023-07-31T08:07:17;99186.34;;;20.41;62.70
48027;BME280;50714;49.208;5.364;2023-07-31T08:17:17;99175.34;;;20.36;63.10
48027;BME280;50714;49.208;5.364;2023-07-31T08:27:17;99168.75;;;20.32;62.75
48027;BME280;50714;49.208;5.364;2023-07-31T08:37:18;99160.53;;;20.12;63.32
48027;BME280;50714;49.208;5.364;2023-07-31T08:47:20;99161.91;;;20.09;63.71
48027;BME280;50714;49.208;5.364;2023-07-31T08:57:21;99155.88;;;20.12;63.71
48027;BME280;50714;49.208;5.364;2023-07-31T09:07:21;99161.09;;;20.14;63.82
48027;BME280;50714;49.208;5.364;2023-07-31T09:17:48;99161.66;;;20.05;64.06
48027;BME280;50714;49.208;5.364;2023-07-31T09:38:04;99136.16;;;19.90;63.67
48027;BME280;50714;49.208;5.364;2023-07-31T09:48:13;99147.94;;;19.95;63.41
48027;BME280;50714;49.208;5.364;2023-07-31T09:58:16;99153.72;;;19.99;63.66
48027;BME280;50714;49.208;5.364;2023-07-31T10:08:18;99166.59;;;20.03;65.41
48027;BME280;50714;49.208;5.364;2023-07-31T10:18:20;99142.22;;;20.02;66.53
48027;BME280;50714;49.208;5.364;2023-07-31T10:28:21;99129.06;;;19.99;65.17
48027;BME280;50714;49.208;5.364;2023-07-31T10:38:23;99132.31;;;19.86;65.22
48027;BME280;50714;49.208;5.364;2023-07-31T10:48:24;99136.44;;;19.88;65.30
48027;BME280;50714;49.208;5.364;2023-07-31T10:58:24;99121.63;;;20.09;64.07
48027;BME280;50714;49.208;5.364;2023-07-31T11:08:29;99111.78;;;20.24;64.31
48027;BME280;50714;49.208;5.364;2023-07-31T11:18:30;99106.00;;;20.35;63.87
48027;BME280;50714;49.208;5.364;2023-07-31T11:28:34;99102.94;;;20.77;63.85
48027;BME280;50714;49.208;5.364;2023-07-31T11:38:34;99081.25;;;21.40;62.59
48027;BME280;50714;49.208;5.364;2023-07-31T11:48:36;99055.34;;;21.52;62.46
48027;BME280;50714;49.208;5.364;2023-07-31T11:58:38;99051.81;;;23.33;61.18
48027;BME280;50714;49.208;5.364;2023-07-31T12:08:38;99037.56;;;23.83;57.15
48027;BME280;50714;49.208;5.364;2023-07-31T12:18:39;99021.06;;;23.07;57.20
48027;BME280;50714;49.208;5.364;2023-07-31T12:28:43;99024.66;;;22.36;57.73
48027;BME280;50714;49.208;5.364;2023-07-31T12:38:45;99014.56;;;22.03;58.52
48027;BME280;50714;49.208;5.364;2023-07-31T12:48:46;99022.75;;;21.74;59.56
48027;BME280;50714;49.208;5.364;2023-07-31T12:58:46;99013.03;;;21.58;60.94
48027;BME280;50714;49.208;5.364;2023-07-31T13:08:46;98982.72;;;21.34;61.25
48027;BME280;50714;49.208;5.364;2023-07-31T13:18:47;98995.72;;;21.23;62.17
48027;BME280;50714;49.208;5.364;2023-07-31T13:28:47;98994.13;;;21.07;63.53
48027;BME280;50714;49.208;5.364;2023-07-31T13:38:47;98998.53;;;21.03;64.63
48027;BME280;50714;49.208;5.364;2023-07-31T13:48:48;98967.47;;;21.18;64.57
48027;BME280;50714;49.208;5.364;2023-07-31T13:58:48;98970.53;;;21.11;64.69
48027;BME280;50714;49.208;5.364;2023-07-31T14:08:48;98956.91;;;20.96;64.61
48027;BME280;50714;49.208;5.364;2023-07-31T14:18:49;98946.25;;;20.89;65.47
48027;BME280;50714;49.208;5.364;2023-07-31T14:28:49;98942.97;;;20.87;65.79
48027;BME280;50714;49.208;5.364;2023-07-31T14:38:50;98943.28;;;20.81;68.70
48027;BME280;50714;49.208;5.364;2023-07-31T14:48:50;98948.38;;;20.53;71.62
48027;BME280;50714;49.208;5.364;2023-07-31T14:58:50;98963.81;;;20.29;74.64
48027;BME280;50714;49.208;5.364;2023-07-31T15:08:50;98941.91;;;20.14;76.57
48027;BME280;50714;49.208;5.364;2023-07-31T15:18:51;98935.63;;;20.08;77.43
48027;BME280;50714;49.208;5.364;2023-07-31T15:28:57;98930.97;;;20.14;79.65
48027;BME280;50714;49.208;5.364;2023-07-31T15:39:00;98938.13;;;20.04;79.30
48027;BME280;50714;49.208;5.364;2023-07-31T15:49:00;98928.88;;;19.75;80.10
48027;BME280;50714;49.208;5.364;2023-07-31T15:59:01;98899.88;;;19.64;81.51
48027;BME280;50714;49.208;5.364;2023-07-31T16:09:01;98874.44;;;19.58;82.08
48027;BME280;50714;49.208;5.364;2023-07-31T16:19:02;98847.84;;;19.69;82.87
48027;BME280;50714;49.208;5.364;2023-07-31T16:29:02;98838.00;;;19.68;83.20
48027;BME280;50714;49.208;5.364;2023-07-31T16:39:02;98795.56;;;19.70;83.28
48027;BME280;50714;49.208;5.364;2023-07-31T16:49:03;98782.44;;;19.62;83.50
48027;BME280;50714;49.208;5.364;2023-07-31T16:59:04;98788.50;;;19.59;84.47
48027;BME280;50714;49.208;5.364;2023-07-31T17:09:04;98761.38;;;19.63;84.83
48027;BME280;50714;49.208;5.364;2023-07-31T17:19:05;98753.75;;;19.55;85.20
48027;BME280;50714;49.208;5.364;2023-07-31T17:29:05;98753.19;;;19.48;86.22
48027;BME280;50714;49.208;5.364;2023-07-31T17:39:05;98748.00;;;19.46;87.12
48027;BME280;50714;49.208;5.364;2023-07-31T17:49:06;98728.28;;;19.44;86.67
48027;BME280;50714;49.208;5.364;2023-07-31T17:59:06;98720.66;;;19.41;86.79
48027;BME280;50714;49.208;5.364;2023-07-31T18:09:08;98713.03;;;19.33;87.53
48027;BME280;50714;49.208;5.364;2023-07-31T18:19:10;98705.09;;;19.31;87.89
48027;BME280;50714;49.208;5.364;2023-07-31T18:29:10;98711.66;;;19.30;88.67
48027;BME280;50714;49.208;5.364;2023-07-31T18:39:10;98699.66;;;19.26;90.21
48027;BME280;50714;49.208;5.364;2023-07-31T18:49:11;98691.72;;;19.20;91.33
48027;BME280;50714;49.208;5.364;2023-07-31T18:59:11;98672.91;;;19.13;92.30
48027;BME280;50714;49.208;5.364;2023-07-31T19:09:12;98671.53;;;19.11;93.69
48027;BME280;50714;49.208;5.364;2023-07-31T19:19:12;98681.38;;;19.06;94.99
48027;BME280;50714;49.208;5.364;2023-07-31T19:29:15;98655.69;;;19.02;95.33
48027;BME280;50714;49.208;5.364;2023-07-31T19:39:15;98611.69;;;18.99;95.83
48027;BME280;50714;49.208;5.364;2023-07-31T19:49:15;98621.78;;;18.98;96.20
48027;BME280;50714;49.208;5.364;2023-07-31T19:59:16;98602.38;;;18.95;96.76
48027;BME280;50714;49.208;5.364;2023-07-31T20:09:16;98567.69;;;18.90;97.54
48027;BME280;50714;49.208;5.364;2023-07-31T20:19:17;98529.75;;;18.79;98.17
48027;BME280;50714;49.208;5.364;2023-07-31T20:29:17;98491.28;;;18.65;99.08
48027;BME280;50714;49.208;5.364;2023-07-31T20:39:17;98497.56;;;18.60;100.00
48027;BME280;50714;49.208;5.364;2023-07-31T20:49:18;98489.09;;;18.62;100.00
48027;BME280;50714;49.208;5.364;2023-07-31T20:59:18;98473.81;;;18.61;100.00
48027;BME280;50714;49.208;5.364;2023-07-31T21:09:19;98462.06;;;18.60;100.00
48027;BME280;50714;49.208;5.364;2023-07-31T21:19:19;98448.09;;;18.57;100.00
48027;BME280;50714;49.208;5.364;2023-07-31T21:29:19;98433.09;;;18.49;100.00
48027;BME280;50714;49.208;5.364;2023-07-31T21:39:20;98390.75;;;18.47;100.00
48027;BME280;50714;49.208;5.364;2023-07-31T21:49:20;98389.19;;;18.40;100.00
48027;BME280;50714;49.208;5.364;2023-07-31T21:59:20;98367.06;;;18.37;100.00
48027;BME280;50714;49.208;5.364;2023-07-31T22:09:21;98354.47;;;18.41;100.00
48027;BME280;50714;49.208;5.364;2023-07-31T22:19:21;98355.03;;;18.38;100.00
48027;BME280;50714;49.208;5.364;2023-07-31T22:29:22;98358.88;;;18.37;100.00
48027;BME280;50714;49.208;5.364;2023-07-31T22:39:23;98340.84;;;18.36;100.00
48027;BME280;50714;49.208;5.364;2023-07-31T22:49:23;98317.63;;;18.33;100.00
48027;BME280;50714;49.208;5.364;2023-07-31T22:59:23;98292.78;;;18.30;100.00
48027;BME280;50714;49.208;5.364;2023-07-31T23:09:24;98279.97;;;18.25;100.00
48027;BME280;50714;49.208;5.364;2023-07-31T23:19:24;98237.91;;;18.26;100.00
48027;BME280;50714;49.208;5.364;2023-07-31T23:29:25;98237.63;;;18.28;100.00
48027;BME280;50714;49.208;5.364;2023-07-31T23:39:25;98240.66;;;18.26;100.00
48027;BME280;50714;49.208;5.364;2023-07-31T23:49:26;98259.50;;;18.28;100.00
48027;BME280;50714;49.208;5.364;2023-07-31T23:59:26;98228.09;;;18.25;100.00
